createdAt,value
2017-11-19T00:00:43.968Z,1.90
2017-11-19T00:03:10.605Z,1.73
2017-11-19T00:05:37.253Z,1.77
2017-11-19T00:08:03.886Z,1.50
2017-11-19T00:10:30.557Z,1.50
2017-11-19T00:12:57.291Z,1.30
2017-11-19T00:15:23.953Z,1.80
2017-11-19T00:17:50.705Z,2.33
2017-11-19T00:20:17.385Z,1.57
2017-11-19T00:22:44.022Z,1.83
2017-11-19T00:25:10.682Z,1.80
2017-11-19T00:27:37.317Z,1.70
2017-11-19T00:30:03.962Z,1.83
2017-11-19T00:32:30.626Z,1.60
2017-11-19T00:34:57.366Z,1.60
2017-11-19T00:37:24.041Z,1.87
2017-11-19T00:39:50.765Z,1.50
2017-11-19T00:42:17.461Z,2.10
2017-11-19T00:44:44.106Z,1.80
2017-11-19T00:47:10.771Z,1.60
2017-11-19T00:49:37.401Z,1.90
2017-11-19T00:52:04.125Z,1.33
2017-11-19T00:54:30.772Z,1.60
2017-11-19T00:56:57.472Z,1.67
2017-11-19T00:59:24.184Z,1.40
2017-11-19T01:01:50.843Z,1.80
2017-11-19T01:04:17.498Z,1.30
2017-11-19T01:06:44.243Z,1.60
2017-11-19T01:09:10.895Z,1.50
2017-11-19T01:11:37.529Z,1.50
2017-11-19T01:14:04.177Z,1.70
2017-11-19T01:16:30.828Z,1.53
2017-11-19T01:18:57.543Z,1.73
2017-11-19T01:21:24.186Z,1.43
2017-11-19T01:23:50.898Z,1.30
2017-11-19T01:26:17.547Z,1.30
2017-11-19T01:28:44.181Z,1.53
2017-11-19T01:31:10.838Z,1.77
2017-11-19T01:33:37.475Z,1.37
2017-11-19T01:36:04.161Z,1.33
2017-11-19T01:38:30.844Z,1.67
2017-11-19T01:40:57.592Z,1.23
2017-11-19T01:43:24.346Z,1.53
2017-11-19T01:45:51.070Z,1.37
2017-11-19T01:48:17.817Z,1.50
2017-11-19T01:50:44.578Z,1.50
2017-11-19T01:53:11.218Z,1.70
2017-11-19T01:55:37.981Z,1.50
2017-11-19T01:58:04.636Z,1.50
2017-11-19T02:00:31.291Z,1.40
2017-11-19T02:02:58.075Z,1.43
2017-11-19T02:05:25.610Z,1.40
2017-11-19T02:07:52.357Z,1.70
2017-11-19T02:10:18.989Z,1.63
2017-11-19T02:12:45.649Z,1.50
2017-11-19T02:15:12.305Z,1.37
2017-11-19T02:17:38.961Z,1.40
2017-11-19T02:20:05.595Z,1.90
2017-11-19T02:22:32.288Z,1.50
2017-11-19T02:24:59.011Z,1.40
2017-11-19T02:27:25.748Z,1.20
2017-11-19T02:29:52.413Z,1.37
2017-11-19T02:32:19.051Z,1.30
2017-11-19T02:34:45.720Z,1.63
2017-11-19T02:37:12.358Z,1.50
2017-11-19T02:39:39.025Z,1.50
2017-11-19T02:42:05.665Z,1.20
2017-11-19T02:44:32.366Z,1.40
2017-11-19T02:46:59.056Z,1.30
2017-11-19T02:49:25.802Z,1.47
2017-11-19T02:51:52.445Z,1.40
2017-11-19T02:54:19.105Z,1.27
2017-11-19T02:56:45.767Z,1.40
2017-11-19T02:59:12.456Z,1.30
2017-11-19T03:01:39.105Z,1.40
2017-11-19T03:04:05.733Z,1.47
2017-11-19T03:06:32.410Z,1.30
2017-11-19T03:08:59.078Z,1.53
2017-11-19T03:11:25.761Z,1.60
2017-11-19T03:13:52.406Z,1.50
2017-11-19T03:16:19.101Z,1.30
2017-11-19T03:18:45.760Z,1.10
2017-11-19T03:21:12.505Z,1.40
2017-11-19T03:23:39.133Z,1.67
2017-11-19T03:26:05.805Z,1.50
2017-11-19T03:28:32.480Z,1.30
2017-11-19T03:30:59.437Z,1.20
2017-11-19T03:33:26.134Z,1.50
2017-11-19T03:35:52.783Z,1.20
2017-11-19T03:38:19.441Z,1.40
2017-11-19T03:40:46.133Z,1.20
2017-11-19T03:43:12.781Z,1.60
2017-11-19T03:45:39.435Z,1.10
2017-11-19T03:48:06.090Z,1.60
2017-11-19T03:50:32.755Z,1.30
2017-11-19T03:52:59.422Z,1.30
2017-11-19T03:55:26.117Z,1.57
2017-11-19T03:57:52.754Z,1.40
2017-11-19T04:00:19.441Z,1.40
2017-11-19T04:02:46.085Z,1.50
2017-11-19T04:05:12.842Z,1.43
2017-11-19T04:07:39.470Z,1.60
2017-11-19T04:10:06.125Z,1.30
2017-11-19T04:12:32.798Z,1.10
2017-11-19T04:14:59.481Z,1.40
2017-11-19T04:17:26.180Z,1.80
2017-11-19T04:19:52.830Z,1.23
2017-11-19T04:22:19.487Z,1.20
2017-11-19T04:24:46.124Z,1.30
2017-11-19T04:27:12.790Z,1.40
2017-11-19T04:29:39.423Z,1.47
2017-11-19T04:32:06.079Z,1.40
2017-11-19T04:34:32.710Z,1.23
2017-11-19T04:36:59.402Z,1.23
2017-11-19T04:39:26.076Z,1.57
2017-11-19T04:41:52.773Z,1.40
2017-11-19T04:44:19.477Z,1.40
2017-11-19T04:46:46.141Z,1.43
2017-11-19T04:49:12.795Z,1.50
2017-11-19T04:51:39.446Z,1.40
2017-11-19T04:54:06.098Z,1.20
2017-11-19T04:56:32.730Z,1.03
2017-11-19T04:58:59.434Z,1.03
2017-11-19T05:01:26.162Z,1.70
2017-11-19T05:03:52.841Z,1.17
2017-11-19T05:06:19.469Z,1.23
2017-11-19T05:08:46.206Z,1.30
2017-11-19T05:11:12.865Z,1.30
2017-11-19T05:13:39.503Z,1.03
2017-11-19T05:16:06.153Z,1.33
2017-11-19T05:18:32.781Z,1.10
2017-11-19T05:20:59.466Z,1.23
2017-11-19T05:23:26.520Z,1.33
2017-11-19T05:25:53.169Z,1.40
2017-11-19T05:28:19.806Z,1.37
2017-11-19T05:30:46.471Z,1.20
2017-11-19T05:33:13.111Z,1.13
2017-11-19T05:35:39.750Z,1.20
2017-11-19T05:38:06.405Z,1.10
2017-11-19T05:40:33.038Z,1.30
2017-11-19T05:42:59.742Z,1.10
2017-11-19T05:45:26.454Z,1.20
2017-11-19T05:47:53.161Z,1.40
2017-11-19T05:50:19.877Z,1.30
2017-11-19T05:52:46.540Z,1.20
2017-11-19T05:55:13.175Z,1.00
2017-11-19T05:57:39.933Z,1.20
2017-11-19T06:00:06.566Z,1.67
2017-11-19T06:02:33.203Z,1.40
2017-11-19T06:04:59.884Z,1.23
2017-11-19T06:07:26.566Z,1.50
2017-11-19T06:09:53.225Z,1.40
2017-11-19T06:12:19.946Z,1.20
2017-11-19T06:14:46.718Z,1.20
2017-11-19T06:17:13.483Z,1.30
2017-11-19T06:19:40.126Z,1.30
2017-11-19T06:22:06.855Z,1.20
2017-11-19T06:24:33.505Z,1.17
2017-11-19T06:27:00.174Z,1.20
2017-11-19T06:29:26.869Z,1.40
2017-11-19T06:31:53.558Z,1.20
2017-11-19T06:34:20.185Z,1.20
2017-11-19T06:36:46.859Z,1.30
2017-11-19T06:39:13.535Z,1.30
2017-11-19T06:41:40.373Z,1.10
2017-11-19T06:44:07.009Z,1.30
2017-11-19T06:46:33.691Z,1.10
2017-11-19T06:49:00.340Z,1.43
2017-11-19T06:51:27.216Z,1.37
2017-11-19T06:53:53.865Z,1.63
2017-11-19T06:56:20.528Z,1.17
2017-11-19T06:58:47.177Z,1.20
2017-11-19T07:01:13.817Z,1.40
2017-11-19T07:03:40.474Z,1.10
2017-11-19T07:06:07.101Z,1.20
2017-11-19T07:08:33.749Z,1.03
2017-11-19T07:11:00.377Z,1.27
2017-11-19T07:13:27.049Z,1.23
2017-11-19T07:15:53.697Z,1.17
2017-11-19T07:18:20.457Z,1.40
2017-11-19T07:20:47.313Z,1.20
2017-11-19T07:23:13.949Z,1.10
2017-11-19T07:25:40.602Z,1.23
2017-11-19T07:28:07.229Z,1.20
2017-11-19T07:30:33.882Z,1.17
2017-11-19T07:33:00.535Z,1.10
2017-11-19T07:35:27.195Z,1.00
2017-11-19T07:37:53.829Z,1.30
2017-11-19T07:40:20.478Z,1.20
2017-11-19T07:42:47.110Z,1.30
2017-11-19T07:45:13.821Z,1.20
2017-11-19T07:47:40.458Z,1.20
2017-11-19T07:50:07.124Z,1.30
2017-11-19T07:52:33.782Z,1.10
2017-11-19T07:55:00.414Z,1.50
2017-11-19T07:57:27.074Z,1.20
2017-11-19T07:59:53.710Z,1.20
2017-11-19T08:02:20.371Z,1.10
2017-11-19T08:04:47.028Z,1.20
2017-11-19T08:07:13.678Z,1.20
2017-11-19T08:09:40.333Z,1.40
2017-11-19T08:12:06.987Z,1.00
2017-11-19T08:14:33.642Z,1.03
2017-11-19T08:17:00.288Z,1.00
2017-11-19T08:19:26.954Z,1.10
2017-11-19T08:21:53.617Z,1.20
2017-11-19T08:24:20.282Z,1.20
2017-11-19T08:26:46.913Z,1.30
2017-11-19T08:29:13.561Z,1.30
2017-11-19T08:31:40.189Z,1.17
2017-11-19T08:34:06.847Z,1.00
2017-11-19T08:36:33.486Z,1.17
2017-11-19T08:39:00.150Z,1.13
2017-11-19T08:41:26.783Z,1.27
2017-11-19T08:43:53.438Z,1.17
2017-11-19T08:46:20.077Z,1.00
2017-11-19T08:48:46.726Z,1.20
2017-11-19T08:51:13.409Z,1.00
2017-11-19T08:53:40.171Z,1.00
2017-11-19T08:56:06.801Z,1.10
2017-11-19T08:58:33.438Z,1.10
2017-11-19T09:01:00.084Z,1.13
2017-11-19T09:03:26.727Z,1.10
2017-11-19T09:05:53.387Z,1.20
2017-11-19T09:08:20.119Z,1.10
2017-11-19T09:10:46.782Z,1.00
2017-11-19T09:13:13.419Z,1.20
2017-11-19T09:15:40.069Z,1.37
2017-11-19T09:18:06.699Z,1.00
2017-11-19T09:20:33.430Z,1.30
2017-11-19T09:23:00.078Z,1.23
2017-11-19T09:25:26.715Z,1.23
2017-11-19T09:27:53.372Z,1.23
2017-11-19T09:30:20.007Z,1.10
2017-11-19T09:32:46.657Z,0.90
2017-11-19T09:35:13.298Z,1.10
2017-11-19T09:37:39.955Z,1.17
2017-11-19T09:40:06.600Z,1.30
2017-11-19T09:42:33.295Z,1.83
2017-11-19T09:44:59.930Z,1.30
2017-11-19T09:47:26.570Z,1.30
2017-11-19T09:49:53.246Z,1.20
2017-11-19T09:52:19.905Z,1.17
2017-11-19T09:54:46.650Z,1.57
2017-11-19T09:57:13.291Z,2.30
2017-11-19T09:59:40.054Z,1.90
2017-11-19T10:02:06.685Z,1.57
2017-11-19T10:04:33.341Z,1.30
2017-11-19T10:06:59.974Z,1.50
2017-11-19T10:09:26.628Z,1.57
2017-11-19T10:11:53.270Z,1.40
2017-11-19T10:14:19.960Z,1.73
2017-11-19T10:16:46.609Z,1.80
2017-11-19T10:19:13.253Z,1.40
2017-11-19T10:21:39.918Z,1.40
2017-11-19T10:24:06.565Z,1.50
2017-11-19T10:26:33.218Z,1.70
2017-11-19T10:28:59.859Z,1.57
2017-11-19T10:31:26.514Z,1.70
2017-11-19T10:33:53.150Z,1.80
2017-11-19T10:36:19.818Z,1.70
2017-11-19T10:38:46.454Z,1.63
2017-11-19T10:41:13.095Z,5.10
2017-11-19T10:43:39.754Z,7.53
2017-11-19T10:46:06.396Z,11.47
2017-11-19T10:48:33.054Z,8.10
2017-11-19T10:50:59.695Z,6.47
2017-11-19T10:53:26.378Z,6.67
2017-11-19T10:55:53.030Z,6.40
2017-11-19T10:58:19.705Z,6.40
2017-11-19T11:00:46.346Z,6.60
2017-11-19T11:03:13.019Z,6.73
2017-11-19T11:05:39.657Z,7.27
2017-11-19T11:08:06.289Z,6.60
2017-11-19T11:10:32.963Z,6.87
2017-11-19T11:12:59.603Z,6.70
2017-11-19T11:15:26.266Z,6.47
2017-11-19T11:17:52.906Z,5.67
2017-11-19T11:20:19.562Z,7.60
2017-11-19T11:22:46.210Z,6.27
2017-11-19T11:25:12.891Z,7.00
2017-11-19T11:27:39.547Z,7.10
2017-11-19T11:30:06.186Z,5.90
2017-11-19T11:32:32.838Z,6.20
2017-11-19T11:34:59.478Z,6.37
2017-11-19T11:37:26.210Z,5.47
2017-11-19T11:39:52.850Z,6.37
2017-11-19T11:42:19.510Z,7.10
2017-11-19T11:44:46.175Z,5.87
2017-11-19T11:47:12.833Z,5.80
2017-11-19T11:49:39.478Z,6.87
2017-11-19T11:52:06.141Z,5.63
2017-11-19T11:54:32.783Z,6.13
2017-11-19T11:56:59.530Z,5.93
2017-11-19T11:59:26.170Z,5.53
2017-11-19T12:01:52.819Z,5.93
2017-11-19T12:04:19.483Z,6.13
2017-11-19T12:06:46.146Z,5.90
2017-11-19T12:09:12.810Z,6.37
2017-11-19T12:11:39.533Z,6.30
2017-11-19T12:14:06.301Z,5.50
2017-11-19T12:16:32.934Z,6.00
2017-11-19T12:18:59.594Z,6.10
2017-11-19T12:21:26.236Z,5.50
2017-11-19T12:23:52.892Z,5.03
2017-11-19T12:26:19.538Z,5.33
2017-11-19T12:28:46.348Z,6.13
2017-11-19T12:31:12.995Z,5.10
2017-11-19T12:33:39.634Z,5.83
2017-11-19T12:36:06.290Z,5.57
2017-11-19T12:38:32.931Z,5.10
2017-11-19T12:40:59.662Z,5.70
2017-11-19T12:43:26.302Z,6.00
2017-11-19T12:45:52.955Z,5.07
2017-11-19T12:48:19.619Z,5.03
2017-11-19T12:50:46.296Z,5.60
2017-11-19T12:53:13.022Z,6.00
2017-11-19T12:55:39.690Z,4.97
2017-11-19T12:58:06.327Z,5.57
2017-11-19T13:00:32.987Z,5.53
2017-11-19T13:02:59.646Z,5.13
2017-11-19T13:05:26.283Z,4.70
2017-11-19T13:07:52.937Z,5.27
2017-11-19T13:10:19.578Z,4.70
2017-11-19T13:12:46.240Z,4.33
2017-11-19T13:15:12.881Z,4.93
2017-11-19T13:17:39.543Z,6.00
2017-11-19T13:20:06.183Z,4.53
2017-11-19T13:22:32.842Z,4.60
2017-11-19T13:24:59.581Z,5.20
2017-11-19T13:27:26.250Z,5.30
2017-11-19T13:29:52.891Z,4.90
2017-11-19T13:32:19.524Z,5.30
2017-11-19T13:34:46.397Z,4.40
2017-11-19T13:37:13.037Z,4.33
2017-11-19T13:39:39.693Z,3.73
2017-11-19T13:42:06.330Z,4.30
2017-11-19T13:44:33.006Z,3.80
2017-11-19T13:46:59.753Z,4.03
2017-11-19T13:49:26.402Z,4.93
2017-11-19T13:51:53.043Z,4.27
2017-11-19T13:54:19.702Z,4.57
2017-11-19T13:56:46.355Z,5.00
2017-11-19T13:59:13.038Z,3.57
2017-11-19T14:01:39.672Z,3.87
2017-11-19T14:04:06.346Z,4.13
2017-11-19T14:06:32.985Z,4.30
2017-11-19T14:08:59.622Z,4.73
2017-11-19T14:11:26.280Z,4.73
2017-11-19T14:13:52.926Z,4.30
2017-11-19T14:16:19.584Z,3.90
2017-11-19T14:18:46.227Z,4.43
2017-11-19T14:21:12.975Z,3.90
2017-11-19T14:23:39.622Z,4.40
2017-11-19T14:26:06.283Z,3.50
2017-11-19T14:28:32.919Z,4.40
2017-11-19T14:30:59.573Z,3.80
2017-11-19T14:33:26.205Z,4.10
2017-11-19T14:35:52.880Z,4.10
2017-11-19T14:38:19.650Z,3.97
2017-11-19T14:40:46.291Z,3.60
2017-11-19T14:43:12.946Z,4.50
2017-11-19T14:45:39.596Z,4.83
2017-11-19T14:48:06.333Z,3.90
2017-11-19T14:50:32.995Z,3.73
2017-11-19T14:52:59.664Z,4.53
2017-11-19T14:55:26.303Z,3.53
2017-11-19T14:57:52.965Z,3.83
2017-11-19T15:00:19.593Z,3.50
2017-11-19T15:02:46.234Z,3.73
2017-11-19T15:05:12.892Z,3.57
2017-11-19T15:07:39.552Z,4.70
2017-11-19T15:10:06.213Z,4.33
2017-11-19T15:12:32.949Z,3.30
2017-11-19T15:14:59.701Z,3.83
2017-11-19T15:17:26.360Z,3.17
2017-11-19T15:19:53.004Z,4.20
2017-11-19T15:22:19.647Z,3.43
2017-11-19T15:24:46.338Z,3.17
2017-11-19T15:27:12.978Z,3.97
2017-11-19T15:29:39.622Z,3.60
2017-11-19T15:32:06.479Z,3.50
2017-11-19T15:34:33.118Z,3.90
2017-11-19T15:36:59.778Z,3.97
2017-11-19T15:39:26.409Z,3.57
2017-11-19T15:41:54.004Z,3.43
2017-11-19T15:44:20.655Z,3.47
2017-11-19T15:46:47.366Z,3.30
2017-11-19T15:49:14.030Z,3.00
2017-11-19T15:51:40.677Z,3.73
2017-11-19T15:54:07.362Z,3.70
2017-11-19T15:56:34.098Z,3.10
2017-11-19T15:59:00.846Z,2.83
2017-11-19T16:01:27.482Z,2.73
2017-11-19T16:03:54.162Z,2.80
2017-11-19T16:06:20.902Z,3.20
2017-11-19T16:08:47.706Z,2.97
2017-11-19T16:11:14.362Z,2.93
2017-11-19T16:13:41.118Z,2.93
2017-11-19T16:16:07.784Z,3.37
2017-11-19T16:18:34.431Z,3.03
2017-11-19T16:21:01.121Z,2.87
2017-11-19T16:23:27.774Z,2.50
2017-11-19T16:25:54.434Z,3.00
2017-11-19T16:28:21.107Z,2.87
2017-11-19T16:30:47.758Z,2.83
2017-11-19T16:33:14.398Z,3.27
2017-11-19T16:35:41.130Z,3.17
2017-11-19T16:38:07.890Z,2.93
2017-11-19T16:40:34.556Z,2.50
2017-11-19T16:43:01.186Z,2.80
2017-11-19T16:45:27.838Z,3.10
2017-11-19T16:47:54.469Z,2.67
2017-11-19T16:50:21.134Z,3.60
2017-11-19T16:52:47.948Z,2.97
2017-11-19T16:55:14.611Z,2.50
2017-11-19T16:57:41.497Z,2.70
2017-11-19T17:00:08.125Z,3.07
2017-11-19T17:02:34.913Z,3.30
2017-11-19T17:05:01.552Z,2.70
2017-11-19T17:07:28.201Z,2.93
2017-11-19T17:09:54.839Z,2.93
2017-11-19T17:12:21.543Z,3.43
2017-11-19T17:14:48.210Z,2.77
2017-11-19T17:17:14.885Z,2.90
2017-11-19T17:19:41.527Z,2.53
2017-11-19T17:22:08.311Z,2.63
2017-11-19T17:24:35.317Z,2.03
2017-11-19T17:27:01.983Z,2.57
2017-11-19T17:29:28.682Z,2.17
2017-11-19T17:31:55.345Z,3.10
2017-11-19T17:34:21.991Z,2.10
2017-11-19T17:36:48.622Z,2.40
2017-11-19T17:39:15.287Z,2.33
2017-11-19T17:41:41.916Z,3.10
2017-11-19T17:44:08.591Z,2.40
2017-11-19T17:46:35.251Z,2.60
2017-11-19T17:49:02.061Z,2.63
2017-11-19T17:51:28.976Z,2.33
2017-11-19T17:53:55.684Z,2.60
2017-11-19T17:56:22.336Z,2.80
2017-11-19T17:58:49.218Z,2.73
2017-11-19T18:01:15.878Z,3.30
2017-11-19T18:03:42.547Z,2.70
2017-11-19T18:06:09.187Z,2.63
2017-11-19T18:08:35.853Z,2.70
2017-11-19T18:11:02.505Z,2.07
2017-11-19T18:13:29.303Z,3.53
2017-11-19T18:15:56.122Z,2.63
2017-11-19T18:18:22.798Z,2.83
2017-11-19T18:20:49.455Z,2.50
2017-11-19T18:23:16.148Z,2.60
2017-11-19T18:25:42.809Z,2.80
2017-11-19T18:30:36.191Z,2.40
2017-11-19T18:33:02.843Z,2.73
2017-11-19T18:35:29.493Z,2.53
2017-11-19T18:37:56.121Z,2.20
2017-11-19T18:40:22.757Z,2.00
2017-11-19T18:42:49.492Z,2.40
2017-11-19T18:45:16.299Z,2.80
2017-11-19T18:47:42.958Z,2.50
2017-11-19T18:50:09.604Z,2.13
2017-11-19T18:52:36.321Z,2.50
2017-11-19T18:55:03.320Z,2.70
2017-11-19T18:57:29.972Z,2.40
2017-11-19T18:59:56.617Z,1.83
2017-11-19T19:02:23.367Z,2.50
2017-11-19T19:04:50.085Z,2.10
2017-11-19T19:07:26.632Z,2.33
2017-11-19T19:09:53.284Z,2.53
2017-11-19T19:12:19.935Z,2.47
2017-11-19T19:14:46.626Z,3.70
2017-11-19T19:17:13.266Z,2.40
2017-11-19T19:19:39.934Z,2.00
2017-11-19T19:22:06.817Z,2.33
2017-11-19T19:24:33.490Z,2.03
2017-11-19T19:27:00.126Z,2.40
2017-11-19T19:29:26.773Z,2.13
2017-11-19T19:31:53.857Z,2.37
2017-11-19T19:34:20.605Z,2.17
2017-11-19T19:36:47.270Z,2.97
2017-11-19T19:39:14.167Z,5.23
2017-11-19T19:41:40.839Z,3.50
2017-11-19T19:44:07.477Z,3.90
2017-11-19T19:46:34.238Z,6.60
2017-11-19T19:49:00.895Z,10.50
2017-11-19T19:51:27.574Z,8.07
2017-11-19T19:53:54.226Z,8.47
2017-11-19T19:56:21.213Z,11.50
2017-11-19T19:58:48.028Z,10.70
2017-11-19T20:01:14.738Z,6.87
2017-11-19T20:03:41.509Z,11.00
2017-11-19T20:06:08.172Z,9.43
2017-11-19T20:08:34.818Z,9.93
2017-11-19T20:11:01.457Z,8.17
2017-11-19T20:13:28.122Z,9.77
2017-11-19T20:15:54.760Z,9.23
2017-11-19T20:18:21.435Z,8.40
2017-11-19T20:20:48.183Z,7.90
2017-11-19T20:23:14.850Z,6.47
2017-11-19T20:25:41.484Z,7.17
2017-11-19T20:28:08.185Z,7.90
2017-11-19T20:30:34.868Z,6.97
2017-11-19T20:33:01.526Z,7.37
2017-11-19T20:35:28.177Z,10.70
2017-11-19T20:37:54.841Z,8.10
2017-11-19T20:40:21.584Z,9.83
2017-11-19T20:42:48.449Z,9.47
2017-11-19T20:45:15.194Z,8.93
2017-11-19T20:47:41.834Z,8.00
2017-11-19T20:50:08.701Z,9.37
2017-11-19T20:52:35.350Z,9.37
2017-11-19T20:55:02.017Z,8.03
2017-11-19T20:57:28.647Z,7.80
2017-11-19T20:59:55.297Z,7.40
2017-11-19T21:02:21.972Z,7.57
2017-11-19T21:04:48.725Z,6.73
2017-11-19T21:07:15.458Z,7.50
2017-11-19T21:09:42.113Z,7.40
2017-11-19T21:12:08.817Z,7.93
2017-11-19T21:14:35.517Z,6.53
2017-11-19T21:17:02.145Z,6.50
2017-11-19T21:19:28.773Z,6.40
2017-11-19T21:21:55.570Z,5.60
2017-11-19T21:24:22.219Z,6.50
2017-11-19T21:26:48.958Z,6.03
2017-11-19T21:29:15.609Z,6.30
2017-11-19T21:31:42.445Z,5.40
2017-11-19T21:34:09.117Z,5.63
2017-11-19T21:36:35.809Z,5.37
2017-11-19T21:39:02.453Z,5.23
2017-11-19T21:41:29.181Z,4.97
2017-11-19T21:43:55.816Z,4.40
2017-11-19T21:46:22.505Z,5.60
2017-11-19T21:48:49.270Z,4.87
2017-11-19T21:51:15.927Z,5.30
2017-11-19T21:53:42.638Z,5.07
2017-11-19T21:56:09.293Z,4.33
2017-11-19T21:58:35.959Z,4.90
2017-11-19T22:01:02.596Z,4.27
2017-11-19T22:03:29.241Z,4.13
2017-11-19T22:05:55.897Z,4.43
2017-11-19T22:08:22.606Z,4.50
2017-11-19T22:10:49.439Z,4.50
2017-11-19T22:13:16.309Z,4.13
2017-11-19T22:15:43.013Z,4.10
2017-11-19T22:18:09.754Z,3.90
2017-11-19T22:20:36.456Z,4.33
2017-11-19T22:23:03.097Z,4.00
2017-11-19T22:25:29.754Z,5.10
2017-11-19T22:27:56.392Z,4.30
2017-11-19T22:30:23.062Z,3.70
2017-11-19T22:32:49.857Z,4.40
2017-11-19T22:35:16.568Z,4.30
2017-11-19T22:37:43.213Z,3.83
2017-11-19T22:40:09.861Z,3.70
2017-11-19T22:42:36.500Z,3.80
2017-11-19T22:45:03.234Z,3.80
2017-11-19T22:47:29.890Z,4.03
2017-11-19T22:49:56.521Z,3.80
2017-11-19T22:52:23.286Z,3.60
2017-11-19T22:54:50.295Z,4.57
2017-11-19T22:57:17.632Z,4.10
2017-11-19T22:59:44.266Z,3.93
2017-11-19T23:02:11.030Z,3.20
2017-11-19T23:04:37.717Z,3.93
2017-11-19T23:07:04.371Z,3.33
2017-11-19T23:09:31.011Z,3.53
2017-11-19T23:11:57.733Z,3.43
2017-11-19T23:14:24.476Z,3.27
2017-11-19T23:16:51.244Z,3.43
2017-11-19T23:19:17.945Z,3.30
2017-11-19T23:21:44.594Z,3.57
2017-11-19T23:24:11.257Z,3.40
2017-11-19T23:26:37.905Z,3.60
2017-11-19T23:29:04.556Z,3.50
2017-11-19T23:31:31.198Z,3.20
2017-11-19T23:33:57.894Z,3.03
2017-11-19T23:36:24.541Z,3.10
2017-11-19T23:38:51.203Z,3.30
2017-11-19T23:41:17.885Z,3.30
2017-11-19T23:43:44.548Z,3.37
2017-11-19T23:46:11.187Z,3.20
2017-11-19T23:48:37.855Z,3.20
2017-11-19T23:51:04.561Z,3.50
2017-11-19T23:53:31.198Z,3.23
2017-11-19T23:55:57.858Z,3.47
2017-11-19T23:58:24.602Z,3.10
